createdAt,value
2023-04-20T00:00:01.186Z,6.08
2023-04-20T00:00:11.929Z,6.11
2023-04-20T00:00:23.633Z,6.10
2023-04-20T00:00:35.831Z,6.10
2023-04-20T00:00:48.534Z,6.10
2023-04-20T00:01:01.261Z,6.10
2023-04-20T00:01:13.709Z,6.10
2023-04-20T00:01:25.397Z,6.10
2023-04-20T00:01:38.116Z,6.11
2023-04-20T00:01:50.640Z,6.10
2023-04-20T00:02:03.362Z,6.11
2023-04-20T00:02:16.435Z,6.10
2023-04-20T00:02:28.302Z,6.11
2023-04-20T00:02:39.173Z,6.13
2023-04-20T00:02:50.062Z,6.10
2023-04-20T00:03:02.680Z,6.11
2023-04-20T00:03:14.706Z,6.13
2023-04-20T00:03:27.513Z,6.13
2023-04-20T00:03:38.775Z,6.11
2023-04-20T00:03:50.720Z,6.13
2023-04-20T00:04:02.492Z,6.13
2023-04-20T00:04:14.204Z,6.13
2023-04-20T00:04:25.952Z,6.13
2023-04-20T00:04:36.779Z,6.13
2023-04-20T00:04:47.508Z,6.14
2023-04-20T00:04:59.977Z,6.13
2023-04-20T00:05:11.806Z,6.14
2023-04-20T00:05:24.332Z,6.14
2023-04-20T00:05:35.162Z,6.13
2023-04-20T00:05:47.023Z,6.13
2023-04-20T00:06:00.258Z,6.14
2023-04-20T00:06:11.969Z,6.14
2023-04-20T00:06:23.710Z,6.14
2023-04-20T00:06:36.210Z,6.16
2023-04-20T00:06:47.971Z,6.14
2023-04-20T00:07:00.408Z,6.13
2023-04-20T00:07:12.917Z,6.16
2023-04-20T00:07:24.682Z,6.16
2023-04-20T00:07:35.480Z,6.16
2023-04-20T00:07:47.159Z,6.16
2023-04-20T00:07:57.987Z,6.16
2023-04-20T00:08:09.668Z,6.16
2023-04-20T00:08:20.448Z,6.17
2023-04-20T00:08:34.145Z,6.16
2023-04-20T00:08:44.890Z,6.17
2023-04-20T00:08:55.686Z,6.16
2023-04-20T00:09:06.384Z,6.17
2023-04-20T00:09:19.122Z,6.16
2023-04-20T00:09:29.990Z,6.19
2023-04-20T00:09:42.421Z,6.17
2023-04-20T00:09:53.153Z,6.17
2023-04-20T00:10:04.786Z,6.17
2023-04-20T00:10:15.497Z,6.19
2023-04-20T00:10:27.192Z,6.20
2023-04-20T00:10:38.865Z,6.20
2023-04-20T00:10:51.133Z,6.20
2023-04-20T00:11:03.557Z,6.20
2023-04-20T00:11:14.282Z,6.20
2023-04-20T00:11:24.991Z,6.20
2023-04-20T00:11:36.757Z,6.20
2023-04-20T00:11:48.439Z,6.21
2023-04-20T00:12:00.909Z,6.21
2023-04-20T00:12:12.567Z,6.20
2023-04-20T00:12:24.996Z,6.20
2023-04-20T00:12:35.726Z,6.20
2023-04-20T00:12:47.462Z,6.21
2023-04-20T00:12:58.227Z,6.21
2023-04-20T00:13:08.923Z,6.21
2023-04-20T00:13:19.665Z,6.21
2023-04-20T00:13:30.402Z,6.21
2023-04-20T00:13:41.108Z,6.21
2023-04-20T00:13:51.805Z,6.24
2023-04-20T00:14:02.538Z,6.21
2023-04-20T00:14:13.207Z,6.24
2023-04-20T00:14:23.951Z,6.24
2023-04-20T00:14:36.134Z,6.21
2023-04-20T00:14:47.812Z,6.24
2023-04-20T00:14:58.534Z,6.24
2023-04-20T00:15:09.234Z,6.24
2023-04-20T00:15:21.632Z,6.24
2023-04-20T00:15:33.320Z,6.25
2023-04-20T00:15:44.054Z,6.25
2023-04-20T00:15:56.542Z,6.25
2023-04-20T00:16:08.955Z,6.25
2023-04-20T00:16:19.726Z,6.25
2023-04-20T00:16:31.379Z,6.24
2023-04-20T00:16:43.153Z,6.25
2023-04-20T00:16:55.579Z,6.25
2023-04-20T00:17:07.484Z,6.27
2023-04-20T00:17:18.261Z,6.27
2023-04-20T00:17:30.704Z,6.25
2023-04-20T00:17:41.447Z,6.25
2023-04-20T00:17:53.880Z,6.25
2023-04-20T00:18:04.663Z,6.25
2023-04-20T00:18:15.361Z,6.28
2023-04-20T00:18:27.890Z,6.25
2023-04-20T00:18:39.839Z,6.27
2023-04-20T00:18:52.360Z,6.27
2023-04-20T00:19:03.078Z,6.25
2023-04-20T00:19:13.796Z,6.27
2023-04-20T00:19:24.563Z,6.27
2023-04-20T00:19:35.270Z,6.27
2023-04-20T00:19:47.010Z,6.28
2023-04-20T00:19:59.148Z,6.28
2023-04-20T00:20:09.919Z,6.28
2023-04-20T00:20:20.731Z,6.28
2023-04-20T00:20:31.423Z,6.28
2023-04-20T00:20:42.132Z,6.30
2023-04-20T00:20:52.849Z,6.30
2023-04-20T00:21:03.587Z,6.28
2023-04-20T00:21:14.277Z,6.30
2023-04-20T00:21:26.008Z,6.30
2023-04-20T00:21:38.880Z,6.32
2023-04-20T00:21:49.577Z,6.30
2023-04-20T00:22:01.734Z,6.30
2023-04-20T00:22:12.472Z,6.30
2023-04-20T00:22:23.202Z,6.30
2023-04-20T00:22:35.416Z,6.32
2023-04-20T00:22:47.132Z,6.32
2023-04-20T00:22:58.826Z,6.32
2023-04-20T00:23:11.230Z,6.32
2023-04-20T00:23:22.930Z,6.32
2023-04-20T00:23:35.115Z,6.32
2023-04-20T00:23:45.808Z,6.33
2023-04-20T00:23:56.548Z,6.32
2023-04-20T00:24:07.275Z,6.33
2023-04-20T00:24:19.676Z,6.33
2023-04-20T00:24:30.399Z,6.33
2023-04-20T00:24:41.132Z,6.33
2023-04-20T00:24:51.870Z,6.35
2023-04-20T00:25:02.603Z,6.33
2023-04-20T00:25:15.036Z,6.33
2023-04-20T00:25:25.699Z,6.35
2023-04-20T00:25:37.513Z,6.33
2023-04-20T00:25:50.751Z,6.35
2023-04-20T00:26:03.953Z,6.33
2023-04-20T00:26:14.741Z,6.35
2023-04-20T00:26:25.508Z,6.36
2023-04-20T00:26:37.148Z,6.35
2023-04-20T00:26:49.663Z,6.36
2023-04-20T00:27:01.813Z,6.36
2023-04-20T00:27:14.985Z,6.36
2023-04-20T00:27:25.706Z,6.36
2023-04-20T00:27:38.205Z,6.38
2023-04-20T00:27:52.414Z,6.38
2023-04-20T00:28:04.092Z,6.38
2023-04-20T00:28:16.556Z,6.38
2023-04-20T00:28:28.706Z,6.38
2023-04-20T00:28:39.460Z,6.39
2023-04-20T00:28:51.122Z,6.39
2023-04-20T00:29:03.560Z,6.39
2023-04-20T00:29:16.109Z,6.39
2023-04-20T00:29:27.011Z,6.39
2023-04-20T00:29:38.715Z,6.39
2023-04-20T00:29:49.516Z,6.39
2023-04-20T00:30:00.245Z,6.39
2023-04-20T00:30:10.948Z,6.40
2023-04-20T00:30:24.705Z,6.40
2023-04-20T00:30:36.351Z,6.40
2023-04-20T00:30:47.050Z,6.40
2023-04-20T00:30:58.783Z,6.42
2023-04-20T00:31:11.025Z,6.42
2023-04-20T00:31:22.827Z,6.42
2023-04-20T00:31:34.552Z,6.40
2023-04-20T00:31:46.826Z,6.42
2023-04-20T00:31:57.560Z,6.43
2023-04-20T00:32:08.322Z,6.43
2023-04-20T00:32:20.532Z,6.40
2023-04-20T00:32:32.236Z,6.42
2023-04-20T00:32:45.224Z,6.42
2023-04-20T00:32:56.001Z,6.42
2023-04-20T00:33:07.782Z,6.42
2023-04-20T00:33:18.493Z,6.42
2023-04-20T00:33:29.275Z,6.42
2023-04-20T00:33:39.962Z,6.43
2023-04-20T00:33:50.733Z,6.42
2023-04-20T00:34:02.637Z,6.42
2023-04-20T00:34:14.310Z,6.43
2023-04-20T00:34:26.006Z,6.43
2023-04-20T00:34:37.695Z,6.43
2023-04-20T00:34:48.372Z,6.42
2023-04-20T00:34:59.092Z,6.42
2023-04-20T00:35:11.259Z,6.43
2023-04-20T00:35:22.024Z,6.42
2023-04-20T00:35:33.679Z,6.42
2023-04-20T00:35:45.423Z,6.42
2023-04-20T00:35:56.139Z,6.43
2023-04-20T00:36:06.838Z,6.43
2023-04-20T00:36:19.287Z,6.43
2023-04-20T00:36:31.031Z,6.43
2023-04-20T00:36:41.757Z,6.43
2023-04-20T00:36:52.518Z,6.43
2023-04-20T00:37:03.257Z,6.43
2023-04-20T00:37:13.972Z,6.43
2023-04-20T00:37:26.142Z,6.43
2023-04-20T00:37:39.362Z,6.45
2023-04-20T00:37:51.060Z,6.45
2023-04-20T00:38:01.749Z,6.46
2023-04-20T00:38:14.963Z,6.45
2023-04-20T00:38:25.712Z,6.46
2023-04-20T00:38:38.173Z,6.45
2023-04-20T00:38:50.582Z,6.46
2023-04-20T00:39:03.774Z,6.46
2023-04-20T00:39:14.991Z,6.45
2023-04-20T00:39:25.951Z,6.45
2023-04-20T00:39:36.677Z,6.46
2023-04-20T00:39:48.340Z,6.46
2023-04-20T00:40:01.777Z,6.46
2023-04-20T00:40:12.491Z,6.46
2023-04-20T00:40:24.939Z,6.46
2023-04-20T00:40:36.603Z,6.48
2023-04-20T00:40:48.311Z,6.46
2023-04-20T00:40:58.983Z,6.46
2023-04-20T00:41:09.692Z,6.46
2023-04-20T00:41:20.449Z,6.45
2023-04-20T00:41:31.142Z,6.46
2023-04-20T00:41:42.817Z,6.45
2023-04-20T00:41:53.545Z,6.46
2023-04-20T00:42:05.777Z,6.43
2023-04-20T00:42:16.480Z,6.43
2023-04-20T00:42:28.928Z,6.43
2023-04-20T00:42:39.589Z,6.43
2023-04-20T00:42:51.302Z,6.45
2023-04-20T00:43:02.005Z,6.43
2023-04-20T00:43:13.692Z,6.43
2023-04-20T00:43:25.370Z,6.42
2023-04-20T00:43:37.114Z,6.43
2023-04-20T00:43:49.809Z,6.42
2023-04-20T00:44:00.522Z,6.42
2023-04-20T00:44:11.237Z,6.42
2023-04-20T00:44:22.927Z,6.40
2023-04-20T00:44:36.006Z,6.39
2023-04-20T00:44:46.682Z,6.39
2023-04-20T00:44:57.388Z,6.39
2023-04-20T00:45:08.076Z,6.38
2023-04-20T00:45:18.793Z,6.38
2023-04-20T00:45:31.227Z,6.38
2023-04-20T00:45:42.946Z,6.38
2023-04-20T00:45:53.714Z,6.36
2023-04-20T00:46:06.253Z,6.36
2023-04-20T00:46:17.899Z,6.35
2023-04-20T00:46:29.578Z,6.33
2023-04-20T00:46:40.350Z,6.33
2023-04-20T00:46:52.125Z,6.32
2023-04-20T00:47:04.531Z,6.30
2023-04-20T00:47:17.238Z,6.30
2023-04-20T00:47:28.954Z,6.27
2023-04-20T00:47:41.675Z,6.28
2023-04-20T00:47:53.863Z,6.28
2023-04-20T00:48:05.644Z,6.27
2023-04-20T00:48:17.334Z,6.27
2023-04-20T00:48:29.028Z,6.25
2023-04-20T00:48:39.755Z,6.25
2023-04-20T00:48:51.987Z,6.25
2023-04-20T00:49:04.426Z,6.21
2023-04-20T00:49:15.382Z,6.21
2023-04-20T00:49:26.349Z,6.21
2023-04-20T00:49:38.582Z,6.21
2023-04-20T00:49:49.266Z,6.19
2023-04-20T00:50:00.944Z,6.19
2023-04-20T00:50:12.623Z,6.17
2023-04-20T00:50:24.784Z,6.17
2023-04-20T00:50:37.211Z,6.14
2023-04-20T00:50:47.912Z,6.16
2023-04-20T00:51:01.085Z,6.14
2023-04-20T00:51:13.293Z,6.13
2023-04-20T00:51:25.687Z,6.11
2023-04-20T00:51:37.384Z,6.11
2023-04-20T00:51:48.097Z,6.10
2023-04-20T00:52:00.330Z,6.08
2023-04-20T00:52:11.009Z,6.06
2023-04-20T00:52:23.413Z,6.06
2023-04-20T00:52:35.895Z,6.02
2023-04-20T00:52:48.411Z,6.05
2023-04-20T00:52:59.082Z,6.02
2023-04-20T00:53:12.252Z,6.03
2023-04-20T00:53:22.971Z,6.02
2023-04-20T00:53:35.356Z,6.01
2023-04-20T00:53:46.066Z,6.01
2023-04-20T00:53:56.783Z,5.99
2023-04-20T00:54:07.549Z,6.01
2023-04-20T00:54:18.257Z,5.99
2023-04-20T00:54:29.989Z,5.99
2023-04-20T00:54:41.759Z,5.98
2023-04-20T00:54:53.468Z,5.96
2023-04-20T00:55:06.633Z,5.96
2023-04-20T00:55:17.342Z,5.96
2023-04-20T00:55:28.050Z,5.95
2023-04-20T00:55:38.783Z,5.95
2023-04-20T00:55:49.544Z,5.93
2023-04-20T00:56:01.296Z,5.93
2023-04-20T00:56:14.197Z,5.92
2023-04-20T00:56:25.925Z,5.92
2023-04-20T00:56:36.649Z,5.92
2023-04-20T00:56:47.423Z,5.88
2023-04-20T00:56:58.136Z,5.88
2023-04-20T00:57:08.821Z,5.87
2023-04-20T00:57:19.512Z,5.88
2023-04-20T00:57:31.923Z,5.87
2023-04-20T00:57:43.628Z,5.87
2023-04-20T00:57:57.311Z,5.85
2023-04-20T00:58:08.973Z,5.84
2023-04-20T00:58:19.682Z,5.84
2023-04-20T00:58:31.407Z,5.85
2023-04-20T00:58:43.092Z,5.83
2023-04-20T00:58:53.783Z,5.84
2023-04-20T00:59:05.957Z,5.83
2023-04-20T00:59:17.901Z,5.83
2023-04-20T00:59:30.387Z,5.80
2023-04-20T00:59:41.137Z,5.81
2023-04-20T00:59:51.893Z,5.80
2023-04-20T01:00:02.580Z,5.80
2023-04-20T01:00:13.289Z,5.78
2023-04-20T01:00:24.026Z,5.78
2023-04-20T01:00:34.729Z,5.77
2023-04-20T01:00:46.427Z,5.78
2023-04-20T01:00:57.101Z,5.77
2023-04-20T01:01:07.891Z,5.77
2023-04-20T01:01:18.640Z,5.75
2023-04-20T01:01:29.360Z,5.73
2023-04-20T01:01:40.191Z,5.74
2023-04-20T01:01:51.904Z,5.75
2023-04-20T01:02:02.730Z,5.74
2023-04-20T01:02:15.047Z,5.74
2023-04-20T01:02:25.872Z,5.73
2023-04-20T01:02:37.691Z,5.73
2023-04-20T01:02:48.634Z,5.73
2023-04-20T01:02:59.488Z,5.73
2023-04-20T01:03:10.677Z,5.70
2023-04-20T01:03:21.621Z,5.69
2023-04-20T01:03:32.592Z,5.70
2023-04-20T01:03:43.654Z,5.69
2023-04-20T01:03:55.534Z,5.69
2023-04-20T01:04:06.410Z,5.67
2023-04-20T01:04:17.324Z,5.67
2023-04-20T01:04:30.760Z,5.67
2023-04-20T01:04:43.950Z,5.66
2023-04-20T01:04:54.640Z,5.66
2023-04-20T01:05:07.877Z,5.67
2023-04-20T01:05:19.649Z,5.67
2023-04-20T01:05:32.057Z,5.65
2023-04-20T01:05:42.794Z,5.66
2023-04-20T01:05:53.498Z,5.65
2023-04-20T01:06:05.957Z,5.65
2023-04-20T01:06:16.697Z,5.65
2023-04-20T01:06:28.426Z,5.63
2023-04-20T01:06:39.118Z,5.63
2023-04-20T01:06:49.806Z,5.63
2023-04-20T01:07:02.196Z,5.65
2023-04-20T01:07:14.403Z,5.65
2023-04-20T01:07:26.131Z,5.63
2023-04-20T01:07:37.846Z,5.63
2023-04-20T01:07:48.597Z,5.63
2023-04-20T01:07:59.310Z,5.63
2023-04-20T01:08:10.021Z,5.65
2023-04-20T01:08:22.217Z,5.63
2023-04-20T01:08:32.926Z,5.63
2023-04-20T01:08:43.714Z,5.63
2023-04-20T01:08:56.091Z,5.63
2023-04-20T01:09:07.794Z,5.63
2023-04-20T01:09:20.179Z,5.63
2023-04-20T01:09:30.887Z,5.65
2023-04-20T01:09:43.350Z,5.63
2023-04-20T01:09:54.048Z,5.63
2023-04-20T01:10:04.775Z,5.63
2023-04-20T01:10:16.947Z,5.63
2023-04-20T01:10:28.647Z,5.63
2023-04-20T01:10:39.340Z,5.65
2023-04-20T01:10:50.036Z,5.63
2023-04-20T01:11:03.222Z,5.63
2023-04-20T01:11:13.918Z,5.65
2023-04-20T01:11:26.137Z,5.63
2023-04-20T01:11:38.560Z,5.63
2023-04-20T01:11:49.257Z,5.63
2023-04-20T01:11:59.950Z,5.65
2023-04-20T01:12:11.680Z,5.63
2023-04-20T01:12:23.390Z,5.63
2023-04-20T01:12:35.799Z,5.63
2023-04-20T01:12:46.573Z,5.65
2023-04-20T01:12:57.325Z,5.63
2023-04-20T01:13:08.995Z,5.63
2023-04-20T01:13:19.691Z,5.63
2023-04-20T01:13:32.418Z,5.63
2023-04-20T01:13:45.054Z,5.62
2023-04-20T01:13:55.760Z,5.63
2023-04-20T01:14:06.491Z,5.63
2023-04-20T01:14:17.171Z,5.62
2023-04-20T01:14:29.860Z,5.62
2023-04-20T01:14:40.565Z,5.62
2023-04-20T01:14:51.314Z,5.62
2023-04-20T01:15:03.700Z,5.63
2023-04-20T01:15:14.402Z,5.63
2023-04-20T01:15:26.898Z,5.63
2023-04-20T01:15:37.692Z,5.62
2023-04-20T01:15:49.900Z,5.62
2023-04-20T01:16:02.369Z,5.63
2023-04-20T01:16:15.551Z,5.62
2023-04-20T01:16:28.056Z,5.62
2023-04-20T01:16:38.795Z,5.62
2023-04-20T01:16:49.488Z,5.62
2023-04-20T01:17:01.970Z,5.62
2023-04-20T01:17:14.363Z,5.62
2023-04-20T01:17:26.130Z,5.60
2023-04-20T01:17:36.892Z,5.62
2023-04-20T01:17:49.345Z,5.60
2023-04-20T01:18:01.801Z,5.62
2023-04-20T01:18:14.016Z,5.62
2023-04-20T01:18:24.720Z,5.60
2023-04-20T01:18:36.440Z,5.60
2023-04-20T01:18:47.163Z,5.60
2023-04-20T01:18:57.841Z,5.60
2023-04-20T01:19:09.518Z,5.60
2023-04-20T01:19:20.333Z,5.59
2023-04-20T01:19:32.110Z,5.59
2023-04-20T01:19:43.821Z,5.60
2023-04-20T01:19:54.535Z,5.59
2023-04-20T01:20:06.964Z,5.58
2023-04-20T01:20:18.629Z,5.59
2023-04-20T01:20:29.310Z,5.59
2023-04-20T01:20:40.017Z,5.59
2023-04-20T01:20:51.740Z,5.59
2023-04-20T01:21:05.393Z,5.58
2023-04-20T01:21:17.575Z,5.58
2023-04-20T01:21:29.270Z,5.59
2023-04-20T01:21:40.976Z,5.58
2023-04-20T01:21:51.644Z,5.58
2023-04-20T01:22:03.346Z,5.58
2023-04-20T01:22:14.084Z,5.56
2023-04-20T01:22:24.769Z,5.58
2023-04-20T01:22:37.206Z,5.59
2023-04-20T01:22:48.903Z,5.56
2023-04-20T01:23:00.567Z,5.58
2023-04-20T01:23:11.284Z,5.58
2023-04-20T01:23:23.034Z,5.58
2023-04-20T01:23:33.753Z,5.56
2023-04-20T01:23:45.945Z,5.56
2023-04-20T01:23:57.605Z,5.56
2023-04-20T01:24:09.823Z,5.56
2023-04-20T01:24:20.748Z,5.56
2023-04-20T01:24:31.463Z,5.56
2023-04-20T01:24:43.861Z,5.56
2023-04-20T01:24:55.529Z,5.56
2023-04-20T01:25:06.233Z,5.56
2023-04-20T01:25:16.963Z,5.56
2023-04-20T01:25:27.654Z,5.55
2023-04-20T01:25:40.062Z,5.55
2023-04-20T01:25:50.743Z,5.56
2023-04-20T01:26:04.499Z,5.55
2023-04-20T01:26:16.961Z,5.52
2023-04-20T01:26:28.706Z,5.52
2023-04-20T01:26:39.456Z,5.52
2023-04-20T01:26:51.158Z,5.52
2023-04-20T01:27:03.550Z,5.52
2023-04-20T01:27:16.707Z,5.51
2023-04-20T01:27:27.440Z,5.49
2023-04-20T01:27:39.094Z,5.49
2023-04-20T01:27:49.824Z,5.49
2023-04-20T01:28:00.515Z,5.49
2023-04-20T01:28:11.274Z,5.49
2023-04-20T01:28:23.069Z,5.48
2023-04-20T01:28:34.775Z,5.48
2023-04-20T01:28:45.506Z,5.47
2023-04-20T01:28:58.458Z,5.47
2023-04-20T01:29:10.124Z,5.45
2023-04-20T01:29:20.825Z,5.44
2023-04-20T01:29:33.999Z,5.42
2023-04-20T01:29:44.754Z,5.44
2023-04-20T01:29:56.421Z,5.42
2023-04-20T01:30:07.145Z,5.42
2023-04-20T01:30:18.922Z,5.42
2023-04-20T01:30:29.604Z,5.41
2023-04-20T01:30:42.011Z,5.40
2023-04-20T01:30:52.739Z,5.41
2023-04-20T01:31:03.436Z,5.40
2023-04-20T01:31:14.156Z,5.40
2023-04-20T01:31:26.628Z,5.38
2023-04-20T01:31:37.439Z,5.40
2023-04-20T01:31:49.690Z,5.38
2023-04-20T01:32:00.453Z,5.37
2023-04-20T01:32:12.154Z,5.35
2023-04-20T01:32:22.867Z,5.35
2023-04-20T01:32:35.366Z,5.35
2023-04-20T01:32:46.096Z,5.33
2023-04-20T01:32:56.854Z,5.32
2023-04-20T01:33:07.762Z,5.32
2023-04-20T01:33:18.467Z,5.32
2023-04-20T01:33:29.163Z,5.32
2023-04-20T01:33:39.873Z,5.32
2023-04-20T01:33:52.340Z,5.30
2023-04-20T01:34:03.053Z,5.30
2023-04-20T01:34:15.740Z,5.29
2023-04-20T01:34:28.190Z,5.29
2023-04-20T01:34:38.934Z,5.27
2023-04-20T01:34:49.776Z,5.27
2023-04-20T01:35:01.608Z,5.26
2023-04-20T01:35:12.313Z,5.24
2023-04-20T01:35:23.034Z,5.24
2023-04-20T01:35:35.445Z,5.23
2023-04-20T01:35:46.106Z,5.20
2023-04-20T01:35:56.810Z,5.20
2023-04-20T01:36:08.985Z,5.19
2023-04-20T01:36:19.704Z,5.17
2023-04-20T01:36:32.121Z,5.17
2023-04-20T01:36:42.870Z,5.17
2023-04-20T01:36:54.665Z,5.14
2023-04-20T01:37:06.331Z,5.14
2023-04-20T01:37:18.500Z,5.12
2023-04-20T01:37:30.459Z,5.14
2023-04-20T01:37:42.883Z,5.12
2023-04-20T01:37:53.566Z,5.12
2023-04-20T01:38:04.299Z,5.11
2023-04-20T01:38:15.004Z,5.11
2023-04-20T01:38:27.422Z,5.11
2023-04-20T01:38:38.196Z,5.08
2023-04-20T01:38:48.892Z,5.08
2023-04-20T01:38:59.596Z,5.08
2023-04-20T01:39:12.054Z,5.06
2023-04-20T01:39:24.509Z,5.08
2023-04-20T01:39:36.735Z,5.06
2023-04-20T01:39:49.211Z,5.05
2023-04-20T01:39:59.919Z,5.06
2023-04-20T01:40:10.636Z,5.06
2023-04-20T01:40:21.360Z,5.06
2023-04-20T01:40:32.112Z,5.06
2023-04-20T01:40:44.479Z,5.06
2023-04-20T01:40:55.178Z,5.05
2023-04-20T01:41:05.876Z,5.06
2023-04-20T01:41:16.664Z,5.05
2023-04-20T01:41:27.347Z,5.05
2023-04-20T01:41:38.051Z,5.04
2023-04-20T01:41:49.763Z,5.05
2023-04-20T01:42:00.468Z,5.04
2023-04-20T01:42:13.210Z,5.04
2023-04-20T01:42:23.890Z,5.02
2023-04-20T01:42:35.615Z,5.02
2023-04-20T01:42:48.938Z,5.01
2023-04-20T01:43:01.112Z,5.02
2023-04-20T01:43:13.300Z,5.01
2023-04-20T01:43:24.063Z,5.02
2023-04-20T01:43:37.270Z,4.99
2023-04-20T01:43:47.977Z,4.97
2023-04-20T01:43:58.659Z,4.97
2023-04-20T01:44:10.333Z,4.97
2023-04-20T01:44:22.024Z,4.97
2023-04-20T01:44:34.526Z,4.97
2023-04-20T01:44:46.191Z,4.94
2023-04-20T01:44:56.957Z,4.94
2023-04-20T01:45:07.651Z,4.94
2023-04-20T01:45:20.556Z,4.94
2023-04-20T01:45:32.882Z,4.94
2023-04-20T01:45:43.587Z,4.93
2023-04-20T01:45:56.779Z,4.93
2023-04-20T01:46:09.431Z,4.91
2023-04-20T01:46:20.171Z,4.90
2023-04-20T01:46:30.908Z,4.90
2023-04-20T01:46:41.616Z,4.91
2023-04-20T01:46:52.389Z,4.90
2023-04-20T01:47:04.938Z,4.90
2023-04-20T01:47:16.682Z,4.87
2023-04-20T01:47:29.926Z,4.88
2023-04-20T01:47:42.464Z,4.87
2023-04-20T01:47:54.203Z,4.86
2023-04-20T01:48:05.074Z,4.87
2023-04-20T01:48:15.766Z,4.86
2023-04-20T01:48:27.427Z,4.86
2023-04-20T01:48:39.102Z,4.87
2023-04-20T01:48:50.789Z,4.86
2023-04-20T01:49:02.491Z,4.84
2023-04-20T01:49:15.232Z,4.84
2023-04-20T01:49:27.651Z,4.84
2023-04-20T01:49:40.082Z,4.84
2023-04-20T01:49:53.246Z,4.84
2023-04-20T01:50:04.961Z,4.83
2023-04-20T01:50:15.674Z,4.84
2023-04-20T01:50:26.394Z,4.83
2023-04-20T01:50:40.053Z,4.83
2023-04-20T01:50:50.835Z,4.83
2023-04-20T01:51:03.984Z,4.80
2023-04-20T01:51:16.439Z,4.83
2023-04-20T01:51:27.158Z,4.83
2023-04-20T01:51:39.575Z,4.83
2023-04-20T01:51:51.264Z,4.83
2023-04-20T01:52:03.644Z,4.80
2023-04-20T01:52:15.371Z,4.80
2023-04-20T01:52:27.093Z,4.80
2023-04-20T01:52:39.514Z,4.80
2023-04-20T01:52:51.288Z,4.79
2023-04-20T01:53:01.972Z,4.77
2023-04-20T01:53:14.367Z,4.79
2023-04-20T01:53:26.009Z,4.77
2023-04-20T01:53:36.720Z,4.77
2023-04-20T01:53:47.423Z,4.77
2023-04-20T01:53:58.129Z,4.75
2023-04-20T01:54:09.826Z,4.75
2023-04-20T01:54:21.510Z,4.75
2023-04-20T01:54:34.556Z,4.75
2023-04-20T01:54:45.232Z,4.74
2023-04-20T01:54:57.499Z,4.74
2023-04-20T01:55:08.194Z,4.74
2023-04-20T01:55:20.150Z,4.74
2023-04-20T01:55:31.882Z,4.74
2023-04-20T01:55:44.079Z,4.71
2023-04-20T01:55:56.503Z,4.72
2023-04-20T01:56:07.336Z,4.72
2023-04-20T01:56:18.057Z,4.69
2023-04-20T01:56:28.803Z,4.69
2023-04-20T01:56:39.491Z,4.71
2023-04-20T01:56:50.183Z,4.69
2023-04-20T01:57:00.902Z,4.69
2023-04-20T01:57:12.590Z,4.69
2023-04-20T01:57:26.239Z,4.68
2023-04-20T01:57:36.938Z,4.68
2023-04-20T01:57:48.694Z,4.68
2023-04-20T01:57:59.443Z,4.67
2023-04-20T01:58:11.969Z,4.67
2023-04-20T01:58:25.147Z,4.65
2023-04-20T01:58:35.863Z,4.65
2023-04-20T01:58:48.280Z,4.65
2023-04-20T01:58:59.019Z,4.65
2023-04-20T01:59:09.784Z,4.67
2023-04-20T01:59:22.191Z,4.67
2023-04-20T01:59:33.876Z,4.65
2023-04-20T01:59:45.553Z,4.67
2023-04-20T01:59:58.734Z,4.67
2023-04-20T02:00:09.443Z,4.67
2023-04-20T02:00:20.192Z,4.67
2023-04-20T02:00:30.901Z,4.67
2023-04-20T02:00:41.655Z,4.68
2023-04-20T02:00:53.320Z,4.68
2023-04-20T02:01:05.918Z,4.68
2023-04-20T02:01:17.704Z,4.68
2023-04-20T02:01:30.071Z,4.68
2023-04-20T02:01:40.840Z,4.68
2023-04-20T02:01:52.581Z,4.68
2023-04-20T02:02:05.891Z,4.68
2023-04-20T02:02:17.677Z,4.68
2023-04-20T02:02:30.168Z,4.68
2023-04-20T02:02:43.563Z,4.68
2023-04-20T02:02:56.221Z,4.68
2023-04-20T02:03:07.038Z,4.67
2023-04-20T02:03:19.845Z,4.68
2023-04-20T02:03:33.292Z,4.68
2023-04-20T02:03:46.161Z,4.69
2023-04-20T02:03:59.661Z,4.69
2023-04-20T02:04:11.385Z,4.69
2023-04-20T02:04:22.039Z,4.68
2023-04-20T02:04:33.720Z,4.68
2023-04-20T02:04:44.427Z,4.68
2023-04-20T02:04:55.197Z,4.68
2023-04-20T02:05:05.897Z,4.69
2023-04-20T02:05:17.589Z,4.68
2023-04-20T02:05:28.316Z,4.69
2023-04-20T02:05:39.102Z,4.67
2023-04-20T02:05:49.783Z,4.67
2023-04-20T02:06:02.025Z,4.69
2023-04-20T02:06:14.367Z,4.71
2023-04-20T02:06:25.127Z,4.68
2023-04-20T02:06:36.886Z,4.69
2023-04-20T02:06:49.139Z,4.68
2023-04-20T02:06:59.851Z,4.69
2023-04-20T02:07:10.580Z,4.69
2023-04-20T02:07:21.363Z,4.68
2023-04-20T02:07:32.020Z,4.68
2023-04-20T02:07:42.769Z,4.68
2023-04-20T02:07:54.453Z,4.68
2023-04-20T02:08:05.157Z,4.69
2023-04-20T02:08:17.388Z,4.68
2023-04-20T02:08:28.137Z,4.68
2023-04-20T02:08:39.834Z,4.68
2023-04-20T02:08:50.549Z,4.69
2023-04-20T02:09:03.716Z,4.68
2023-04-20T02:09:15.670Z,4.68
2023-04-20T02:09:26.534Z,4.69
2023-04-20T02:09:38.934Z,4.69
2023-04-20T02:09:52.589Z,4.71
2023-04-20T02:10:03.266Z,4.71
2023-04-20T02:10:15.043Z,4.69
2023-04-20T02:10:27.446Z,4.71
2023-04-20T02:10:40.665Z,4.69
2023-04-20T02:10:51.390Z,4.69
2023-04-20T02:11:03.054Z,4.71
2023-04-20T02:11:14.994Z,4.68
2023-04-20T02:11:27.418Z,4.69
2023-04-20T02:11:38.108Z,4.69
2023-04-20T02:11:49.778Z,4.67
2023-04-20T02:12:02.234Z,4.69
2023-04-20T02:12:15.158Z,4.69
2023-04-20T02:12:26.853Z,4.68
2023-04-20T02:12:38.582Z,4.67
2023-04-20T02:12:50.965Z,4.67
2023-04-20T02:13:01.793Z,4.68
2023-04-20T02:13:14.140Z,4.68
2023-04-20T02:13:28.833Z,4.69
2023-04-20T02:13:40.559Z,4.68
2023-04-20T02:13:52.915Z,4.69
2023-04-20T02:14:03.669Z,4.68
2023-04-20T02:14:14.358Z,4.69
2023-04-20T02:14:26.056Z,4.69
2023-04-20T02:14:37.749Z,4.68
2023-04-20T02:14:49.418Z,4.69
2023-04-20T02:15:00.201Z,4.68
2023-04-20T02:15:10.941Z,4.68
2023-04-20T02:15:21.669Z,4.68
2023-04-20T02:15:33.880Z,4.69
2023-04-20T02:15:44.596Z,4.69
2023-04-20T02:15:56.484Z,4.69
2023-04-20T02:16:08.156Z,4.69
2023-04-20T02:16:20.341Z,4.71
2023-04-20T02:16:32.073Z,4.71
2023-04-20T02:16:43.791Z,4.69
2023-04-20T02:16:56.230Z,4.69
2023-04-20T02:17:09.421Z,4.71
2023-04-20T02:17:21.343Z,4.71
2023-04-20T02:17:32.167Z,4.71
2023-04-20T02:17:44.633Z,4.69
2023-04-20T02:17:55.373Z,4.68
2023-04-20T02:18:06.117Z,4.69
2023-04-20T02:18:18.258Z,4.71
2023-04-20T02:18:29.000Z,4.69
2023-04-20T02:18:39.719Z,4.71
2023-04-20T02:18:51.397Z,4.69
2023-04-20T02:19:03.794Z,4.69
2023-04-20T02:19:14.556Z,4.68
2023-04-20T02:19:26.308Z,4.71
2023-04-20T02:19:37.041Z,4.68
2023-04-20T02:19:50.742Z,4.69
2023-04-20T02:20:02.417Z,4.71
2023-04-20T02:20:13.150Z,4.69
2023-04-20T02:20:24.795Z,4.69
2023-04-20T02:20:36.524Z,4.69
2023-04-20T02:20:47.271Z,4.71
2023-04-20T02:20:58.985Z,4.68
2023-04-20T02:21:09.712Z,4.71
2023-04-20T02:21:21.361Z,4.71
2023-04-20T02:21:32.082Z,4.71
2023-04-20T02:21:44.281Z,4.71
2023-04-20T02:21:55.996Z,4.71
2023-04-20T02:22:08.409Z,4.71
2023-04-20T02:22:19.096Z,4.69
2023-04-20T02:22:30.799Z,4.71
2023-04-20T02:22:41.494Z,4.71
2023-04-20T02:22:54.227Z,4.69
2023-04-20T02:23:06.393Z,4.71
2023-04-20T02:23:18.593Z,4.71
2023-04-20T02:23:30.824Z,4.69
2023-04-20T02:23:41.568Z,4.71
2023-04-20T02:23:52.276Z,4.71
2023-04-20T02:24:02.941Z,4.69
2023-04-20T02:24:13.701Z,4.69
2023-04-20T02:24:25.371Z,4.68
2023-04-20T02:24:37.076Z,4.69
2023-04-20T02:24:49.464Z,4.69
2023-04-20T02:25:01.880Z,4.69
2023-04-20T02:25:12.610Z,4.69
2023-04-20T02:25:23.306Z,4.69
2023-04-20T02:25:35.549Z,4.69
2023-04-20T02:25:46.228Z,4.71
2023-04-20T02:25:59.899Z,4.69
2023-04-20T02:26:10.627Z,4.71
2023-04-20T02:26:21.325Z,4.69
2023-04-20T02:26:32.027Z,4.68
2023-04-20T02:26:42.768Z,4.68
2023-04-20T02:26:54.420Z,4.68
2023-04-20T02:27:06.114Z,4.68
2023-04-20T02:27:17.821Z,4.68
2023-04-20T02:27:30.033Z,4.68
2023-04-20T02:27:42.503Z,4.68
2023-04-20T02:27:55.038Z,4.68
2023-04-20T02:28:05.731Z,4.68
2023-04-20T02:28:16.467Z,4.68
2023-04-20T02:28:27.262Z,4.67
2023-04-20T02:28:37.983Z,4.67
2023-04-20T02:28:49.668Z,4.67
2023-04-20T02:29:00.457Z,4.67
2023-04-20T02:29:11.169Z,4.67
2023-04-20T02:29:21.873Z,4.67
2023-04-20T02:29:32.601Z,4.67
2023-04-20T02:29:46.308Z,4.67
2023-04-20T02:29:58.064Z,4.65
2023-04-20T02:30:08.768Z,4.64
2023-04-20T02:30:20.433Z,4.64
2023-04-20T02:30:31.146Z,4.64
2023-04-20T02:30:41.847Z,4.64
2023-04-20T02:30:52.588Z,4.61
2023-04-20T02:31:05.041Z,4.62
2023-04-20T02:31:17.434Z,4.59
2023-04-20T02:31:28.174Z,4.61
2023-04-20T02:31:38.945Z,4.62
2023-04-20T02:31:49.686Z,4.61
2023-04-20T02:32:01.292Z,4.61
2023-04-20T02:32:13.500Z,4.61
2023-04-20T02:32:25.253Z,4.59
2023-04-20T02:32:37.005Z,4.61
2023-04-20T02:32:48.750Z,4.61
2023-04-20T02:33:00.461Z,4.61
2023-04-20T02:33:11.140Z,4.61
2023-04-20T02:33:23.611Z,4.62
2023-04-20T02:33:35.391Z,4.61
2023-04-20T02:33:46.083Z,4.61